sensor_id;sensor_type;location;lat;lon;timestamp;temperature;humidity
36458;DHT22;22480;50.546;12.292;2023-05-10T00:02:24;10.40;99.90
36458;DHT22;22480;50.546;12.292;2023-05-10T00:04:50;10.30;99.90
36458;DHT22;22480;50.546;12.292;2023-05-10T00:07:15;10.10;99.90
36458;DHT22;22480;50.546;12.292;2023-05-10T00:09:43;10.00;99.90
36458;DHT22;22480;50.546;12.292;2023-05-10T00:12:09;9.90;99.90
36458;DHT22;22480;50.546;12.292;2023-05-10T00:14:35;9.90;99.90
36458;DHT22;22480;50.546;12.292;2023-05-10T00:17:00;9.80;99.90
36458;DHT22;22480;50.546;12.292;2023-05-10T00:19:26;9.80;99.90
36458;DHT22;22480;50.546;12.292;2023-05-10T00:21:52;9.80;99.90
36458;DHT22;22480;50.546;12.292;2023-05-10T00:24:18;9.70;99.90
36458;DHT22;22480;50.546;12.292;2023-05-10T00:26:43;9.70;99.90
36458;DHT22;22480;50.546;12.292;2023-05-10T00:29:09;9.70;99.90
36458;DHT22;22480;50.546;12.292;2023-05-10T00:31:35;9.70;99.90
36458;DHT22;22480;50.546;12.292;2023-05-10T00:34:00;9.70;99.90
36458;DHT22;22480;50.546;12.292;2023-05-10T00:36:26;9.80;99.90
36458;DHT22;22480;50.546;12.292;2023-05-10T00:38:53;9.80;99.90
36458;DHT22;22480;50.546;12.292;2023-05-10T00:41:18;10.00;99.90
36458;DHT22;22480;50.546;12.292;2023-05-10T00:43:45;10.00;99.90
36458;DHT22;22480;50.546;12.292;2023-05-10T00:46:11;10.00;99.90
36458;DHT22;22480;50.546;12.292;2023-05-10T00:48:37;10.10;99.90
36458;DHT22;22480;50.546;12.292;2023-05-10T00:51:03;10.20;99.90
36458;DHT22;22480;50.546;12.292;2023-05-10T00:53:31;10.30;99.90
36458;DHT22;22480;50.546;12.292;2023-05-10T00:55:57;10.30;99.90
36458;DHT22;22480;50.546;12.292;2023-05-10T00:58:24;10.30;99.90
36458;DHT22;22480;50.546;12.292;2023-05-10T01:00:54;10.20;99.90
36458;DHT22;22480;50.546;12.292;2023-05-10T01:03:20;10.20;99.90
36458;DHT22;22480;50.546;12.292;2023-05-10T01:05:47;10.10;99.90
36458;DHT22;22480;50.546;12.292;2023-05-10T01:08:13;10.10;99.90
36458;DHT22;22480;50.546;12.292;2023-05-10T01:10:39;10.20;99.90
36458;DHT22;22480;50.546;12.292;2023-05-10T01:13:05;10.20;99.90
36458;DHT22;22480;50.546;12.292;2023-05-10T01:15:31;10.10;99.90
36458;DHT22;22480;50.546;12.292;2023-05-10T01:17:57;10.00;99.90
36458;DHT22;22480;50.546;12.292;2023-05-10T01:20:24;10.00;99.90
36458;DHT22;22480;50.546;12.292;2023-05-10T01:23:09;10.10;99.90
36458;DHT22;22480;50.546;12.292;2023-05-10T01:25:58;10.00;99.90
36458;DHT22;22480;50.546;12.292;2023-05-10T01:34:20;10.20;99.90
36458;DHT22;22480;50.546;12.292;2023-05-10T01:36:56;10.30;99.90
36458;DHT22;22480;50.546;12.292;2023-05-10T01:39:28;10.40;99.90
36458;DHT22;22480;50.546;12.292;2023-05-10T01:42:08;10.40;99.90
36458;DHT22;22480;50.546;12.292;2023-05-10T01:47:17;10.70;99.90
36458;DHT22;22480;50.546;12.292;2023-05-10T01:49:53;10.70;99.90
36458;DHT22;22480;50.546;12.292;2023-05-10T01:52:28;10.70;99.90
36458;DHT22;22480;50.546;12.292;2023-05-10T01:55:00;10.70;99.90
36458;DHT22;22480;50.546;12.292;2023-05-10T01:57:33;10.70;99.90
36458;DHT22;22480;50.546;12.292;2023-05-10T02:00:01;10.60;99.90
36458;DHT22;22480;50.546;12.292;2023-05-10T02:02:42;10.60;99.90
36458;DHT22;22480;50.546;12.292;2023-05-10T02:05:12;10.60;99.90
36458;DHT22;22480;50.546;12.292;2023-05-10T02:07:38;10.60;99.90
36458;DHT22;22480;50.546;12.292;2023-05-10T02:10:07;10.60;99.90
36458;DHT22;22480;50.546;12.292;2023-05-10T02:12:41;10.60;99.90
36458;DHT22;22480;50.546;12.292;2023-05-10T02:15:08;10.50;99.90
36458;DHT22;22480;50.546;12.292;2023-05-10T02:17:37;10.50;99.90
36458;DHT22;22480;50.546;12.292;2023-05-10T02:20:05;10.50;99.90
36458;DHT22;22480;50.546;12.292;2023-05-10T02:22:39;10.50;99.90
36458;DHT22;22480;50.546;12.292;2023-05-10T02:25:07;10.50;99.90
36458;DHT22;22480;50.546;12.292;2023-05-10T02:27:34;10.50;99.90
36458;DHT22;22480;50.546;12.292;2023-05-10T02:30:00;10.50;99.90
36458;DHT22;22480;50.546;12.292;2023-05-10T02:32:27;10.50;99.90
36458;DHT22;22480;50.546;12.292;2023-05-10T02:34:56;10.50;99.90
36458;DHT22;22480;50.546;12.292;2023-05-10T02:37:22;10.60;99.90
36458;DHT22;22480;50.546;12.292;2023-05-10T02:39:50;10.50;99.90
36458;DHT22;22480;50.546;12.292;2023-05-10T02:42:19;10.60;99.90
36458;DHT22;22480;50.546;12.292;2023-05-10T02:44:48;10.50;99.90
36458;DHT22;22480;50.546;12.292;2023-05-10T02:47:14;10.50;99.90
36458;DHT22;22480;50.546;12.292;2023-05-10T02:49:40;10.60;99.90
36458;DHT22;22480;50.546;12.292;2023-05-10T02:52:06;10.50;99.90
36458;DHT22;22480;50.546;12.292;2023-05-10T02:54:41;10.50;99.90
36458;DHT22;22480;50.546;12.292;2023-05-10T02:57:14;10.60;99.90
36458;DHT22;22480;50.546;12.292;2023-05-10T02:59:41;10.60;99.90
36458;DHT22;22480;50.546;12.292;2023-05-10T03:02:09;10.60;99.90
36458;DHT22;22480;50.546;12.292;2023-05-10T03:04:35;10.50;99.90
36458;DHT22;22480;50.546;12.292;2023-05-10T03:07:02;10.50;99.90
36458;DHT22;22480;50.546;12.292;2023-05-10T03:09:28;10.50;99.90
36458;DHT22;22480;50.546;12.292;2023-05-10T03:12:16;10.60;99.90
36458;DHT22;22480;50.546;12.292;2023-05-10T03:15:17;10.70;99.90
36458;DHT22;22480;50.546;12.292;2023-05-10T03:18:02;10.60;99.90
36458;DHT22;22480;50.546;12.292;2023-05-10T03:20:41;10.70;99.90
36458;DHT22;22480;50.546;12.292;2023-05-10T03:23:12;10.60;99.90
36458;DHT22;22480;50.546;12.292;2023-05-10T03:25:40;10.60;99.90
36458;DHT22;22480;50.546;12.292;2023-05-10T03:28:07;10.60;99.90
36458;DHT22;22480;50.546;12.292;2023-05-10T03:30:35;10.70;99.90
36458;DHT22;22480;50.546;12.292;2023-05-10T03:33:05;10.80;99.90
36458;DHT22;22480;50.546;12.292;2023-05-10T03:35:32;10.80;99.90
36458;DHT22;22480;50.546;12.292;2023-05-10T03:37:58;10.90;99.90
36458;DHT22;22480;50.546;12.292;2023-05-10T03:40:25;10.90;99.90
36458;DHT22;22480;50.546;12.292;2023-05-10T03:42:51;10.90;99.90
36458;DHT22;22480;50.546;12.292;2023-05-10T03:45:17;10.90;99.90
36458;DHT22;22480;50.546;12.292;2023-05-10T03:47:43;10.90;99.90
36458;DHT22;22480;50.546;12.292;2023-05-10T03:50:09;10.90;99.90
36458;DHT22;22480;50.546;12.292;2023-05-10T03:52:35;10.90;99.90
36458;DHT22;22480;50.546;12.292;2023-05-10T03:55:01;11.00;99.90
36458;DHT22;22480;50.546;12.292;2023-05-10T03:57:29;11.00;99.90
36458;DHT22;22480;50.546;12.292;2023-05-10T03:59:54;11.00;99.90
36458;DHT22;22480;50.546;12.292;2023-05-10T04:02:20;11.10;99.90
36458;DHT22;22480;50.546;12.292;2023-05-10T04:04:46;11.20;99.90
36458;DHT22;22480;50.546;12.292;2023-05-10T04:07:11;11.20;99.90
36458;DHT22;22480;50.546;12.292;2023-05-10T04:09:37;11.40;99.90
36458;DHT22;22480;50.546;12.292;2023-05-10T04:12:03;11.40;99.90
36458;DHT22;22480;50.546;12.292;2023-05-10T04:14:29;11.50;99.90
36458;DHT22;22480;50.546;12.292;2023-05-10T04:16:54;11.50;99.90
36458;DHT22;22480;50.546;12.292;2023-05-10T04:19:20;11.60;99.90
36458;DHT22;22480;50.546;12.292;2023-05-10T04:21:46;11.60;99.90
36458;DHT22;22480;50.546;12.292;2023-05-10T04:24:12;11.60;99.90
36458;DHT22;22480;50.546;12.292;2023-05-10T04:26:37;11.70;99.90
36458;DHT22;22480;50.546;12.292;2023-05-10T04:29:03;11.70;99.90
36458;DHT22;22480;50.546;12.292;2023-05-10T04:31:29;11.80;99.90
36458;DHT22;22480;50.546;12.292;2023-05-10T04:33:54;11.80;99.90
36458;DHT22;22480;50.546;12.292;2023-05-10T04:36:20;11.90;99.90
36458;DHT22;22480;50.546;12.292;2023-05-10T04:38:46;12.00;99.90
36458;DHT22;22480;50.546;12.292;2023-05-10T04:41:12;12.10;99.90
36458;DHT22;22480;50.546;12.292;2023-05-10T04:43:38;12.20;99.90
36458;DHT22;22480;50.546;12.292;2023-05-10T04:46:04;12.30;99.90
36458;DHT22;22480;50.546;12.292;2023-05-10T04:48:30;12.40;99.90
36458;DHT22;22480;50.546;12.292;2023-05-10T04:50:55;12.40;99.90
36458;DHT22;22480;50.546;12.292;2023-05-10T04:53:22;12.50;99.90
36458;DHT22;22480;50.546;12.292;2023-05-10T04:55:47;12.60;99.90
36458;DHT22;22480;50.546;12.292;2023-05-10T04:58:13;12.60;99.90
36458;DHT22;22480;50.546;12.292;2023-05-10T05:00:39;12.60;99.90
36458;DHT22;22480;50.546;12.292;2023-05-10T05:03:05;12.60;99.90
36458;DHT22;22480;50.546;12.292;2023-05-10T05:05:30;12.70;99.90
36458;DHT22;22480;50.546;12.292;2023-05-10T05:07:56;12.70;99.90
36458;DHT22;22480;50.546;12.292;2023-05-10T05:10:22;12.70;99.90
36458;DHT22;22480;50.546;12.292;2023-05-10T05:12:47;12.70;99.90
36458;DHT22;22480;50.546;12.292;2023-05-10T05:15:13;12.80;99.90
36458;DHT22;22480;50.546;12.292;2023-05-10T05:17:40;12.80;99.90
36458;DHT22;22480;50.546;12.292;2023-05-10T05:20:06;12.80;99.90
36458;DHT22;22480;50.546;12.292;2023-05-10T05:22:33;12.90;99.90
36458;DHT22;22480;50.546;12.292;2023-05-10T05:24:59;13.00;99.90
36458;DHT22;22480;50.546;12.292;2023-05-10T05:27:25;13.00;99.90
36458;DHT22;22480;50.546;12.292;2023-05-10T05:29:54;13.10;99.90
36458;DHT22;22480;50.546;12.292;2023-05-10T05:32:21;13.20;99.90
36458;DHT22;22480;50.546;12.292;2023-05-10T05:34:47;13.30;99.90
36458;DHT22;22480;50.546;12.292;2023-05-10T05:37:17;13.30;99.90
36458;DHT22;22480;50.546;12.292;2023-05-10T05:39:44;13.30;99.90
36458;DHT22;22480;50.546;12.292;2023-05-10T05:42:10;13.30;99.90
36458;DHT22;22480;50.546;12.292;2023-05-10T05:44:36;13.30;99.90
36458;DHT22;22480;50.546;12.292;2023-05-10T05:47:02;13.40;99.90
36458;DHT22;22480;50.546;12.292;2023-05-10T05:49:28;13.40;99.90
36458;DHT22;22480;50.546;12.292;2023-05-10T05:51:54;13.30;99.90
36458;DHT22;22480;50.546;12.292;2023-05-10T05:54:20;13.30;99.90
36458;DHT22;22480;50.546;12.292;2023-05-10T05:56:45;13.20;99.90
36458;DHT22;22480;50.546;12.292;2023-05-10T05:59:11;13.20;99.90
36458;DHT22;22480;50.546;12.292;2023-05-10T06:01:37;13.20;99.90
36458;DHT22;22480;50.546;12.292;2023-05-10T06:04:03;13.20;99.90
36458;DHT22;22480;50.546;12.292;2023-05-10T06:06:28;13.30;99.90
36458;DHT22;22480;50.546;12.292;2023-05-10T06:08:55;13.30;99.90
36458;DHT22;22480;50.546;12.292;2023-05-10T06:11:20;13.30;99.90
36458;DHT22;22480;50.546;12.292;2023-05-10T06:13:50;13.30;99.90
36458;DHT22;22480;50.546;12.292;2023-05-10T06:16:15;13.30;99.90
36458;DHT22;22480;50.546;12.292;2023-05-10T06:18:41;13.30;99.90
36458;DHT22;22480;50.546;12.292;2023-05-10T06:21:07;13.20;99.90
36458;DHT22;22480;50.546;12.292;2023-05-10T06:23:33;13.30;99.90
36458;DHT22;22480;50.546;12.292;2023-05-10T06:25:58;13.30;99.90
36458;DHT22;22480;50.546;12.292;2023-05-10T06:28:24;13.30;99.90
36458;DHT22;22480;50.546;12.292;2023-05-10T06:30:50;13.40;99.90
36458;DHT22;22480;50.546;12.292;2023-05-10T06:33:15;13.30;99.90
36458;DHT22;22480;50.546;12.292;2023-05-10T06:35:41;13.10;99.90
36458;DHT22;22480;50.546;12.292;2023-05-10T06:38:07;12.90;99.90
36458;DHT22;22480;50.546;12.292;2023-05-10T06:40:32;12.50;99.90
36458;DHT22;22480;50.546;12.292;2023-05-10T06:42:58;12.30;99.90
36458;DHT22;22480;50.546;12.292;2023-05-10T06:45:24;12.00;99.90
36458;DHT22;22480;50.546;12.292;2023-05-10T06:47:50;11.90;99.90
36458;DHT22;22480;50.546;12.292;2023-05-10T06:50:15;11.70;99.90
36458;DHT22;22480;50.546;12.292;2023-05-10T06:52:41;11.70;99.90
36458;DHT22;22480;50.546;12.292;2023-05-10T06:55:07;11.70;99.90
36458;DHT22;22480;50.546;12.292;2023-05-10T06:57:34;11.60;99.90
36458;DHT22;22480;50.546;12.292;2023-05-10T07:00:00;11.60;99.90
36458;DHT22;22480;50.546;12.292;2023-05-10T07:02:25;11.50;99.90
36458;DHT22;22480;50.546;12.292;2023-05-10T07:04:52;11.40;99.90
36458;DHT22;22480;50.546;12.292;2023-05-10T07:07:18;11.30;99.90
36458;DHT22;22480;50.546;12.292;2023-05-10T07:09:44;11.20;99.90
36458;DHT22;22480;50.546;12.292;2023-05-10T07:12:10;11.10;99.90
36458;DHT22;22480;50.546;12.292;2023-05-10T07:14:36;11.00;99.90
36458;DHT22;22480;50.546;12.292;2023-05-10T07:17:01;11.10;99.90
36458;DHT22;22480;50.546;12.292;2023-05-10T07:19:27;11.30;99.90
36458;DHT22;22480;50.546;12.292;2023-05-10T07:21:54;11.40;99.90
36458;DHT22;22480;50.546;12.292;2023-05-10T07:24:20;11.50;99.90
36458;DHT22;22480;50.546;12.292;2023-05-10T07:26:46;11.60;99.90
36458;DHT22;22480;50.546;12.292;2023-05-10T07:29:12;11.60;99.90
36458;DHT22;22480;50.546;12.292;2023-05-10T07:31:38;11.60;99.90
36458;DHT22;22480;50.546;12.292;2023-05-10T07:34:03;11.50;99.90
36458;DHT22;22480;50.546;12.292;2023-05-10T07:36:29;11.50;99.90
36458;DHT22;22480;50.546;12.292;2023-05-10T07:38:55;11.60;99.90
36458;DHT22;22480;50.546;12.292;2023-05-10T07:41:21;11.70;99.90
36458;DHT22;22480;50.546;12.292;2023-05-10T07:43:47;11.80;99.90
36458;DHT22;22480;50.546;12.292;2023-05-10T07:46:13;12.00;99.90
36458;DHT22;22480;50.546;12.292;2023-05-10T07:48:39;12.20;99.90
36458;DHT22;22480;50.546;12.292;2023-05-10T07:51:05;12.40;99.90
36458;DHT22;22480;50.546;12.292;2023-05-10T07:53:32;12.50;99.90
36458;DHT22;22480;50.546;12.292;2023-05-10T07:55:58;12.60;99.90
36458;DHT22;22480;50.546;12.292;2023-05-10T07:58:26;12.70;99.90
36458;DHT22;22480;50.546;12.292;2023-05-10T08:00:52;12.80;99.90
36458;DHT22;22480;50.546;12.292;2023-05-10T08:03:18;12.80;99.90
36458;DHT22;22480;50.546;12.292;2023-05-10T08:05:43;12.80;99.90
36458;DHT22;22480;50.546;12.292;2023-05-10T08:08:09;12.70;99.90
36458;DHT22;22480;50.546;12.292;2023-05-10T08:10:34;12.70;99.90
36458;DHT22;22480;50.546;12.292;2023-05-10T08:13:00;12.30;99.90
36458;DHT22;22480;50.546;12.292;2023-05-10T08:15:26;12.10;99.90
36458;DHT22;22480;50.546;12.292;2023-05-10T08:17:52;12.00;99.90
36458;DHT22;22480;50.546;12.292;2023-05-10T08:20:18;11.90;99.90
36458;DHT22;22480;50.546;12.292;2023-05-10T08:22:47;11.80;99.90
36458;DHT22;22480;50.546;12.292;2023-05-10T08:25:13;11.80;99.90
36458;DHT22;22480;50.546;12.292;2023-05-10T08:27:39;11.80;99.90
36458;DHT22;22480;50.546;12.292;2023-05-10T08:30:05;11.80;99.90
36458;DHT22;22480;50.546;12.292;2023-05-10T08:32:31;11.90;99.90
36458;DHT22;22480;50.546;12.292;2023-05-10T08:34:57;11.90;99.90
36458;DHT22;22480;50.546;12.292;2023-05-10T08:37:23;12.00;99.90
36458;DHT22;22480;50.546;12.292;2023-05-10T08:39:49;12.00;99.90
36458;DHT22;22480;50.546;12.292;2023-05-10T08:42:18;12.00;99.90
36458;DHT22;22480;50.546;12.292;2023-05-10T08:44:48;12.10;99.90
36458;DHT22;22480;50.546;12.292;2023-05-10T08:47:15;12.20;99.90
36458;DHT22;22480;50.546;12.292;2023-05-10T08:49:42;12.30;99.90
36458;DHT22;22480;50.546;12.292;2023-05-10T08:52:11;12.40;99.90
36458;DHT22;22480;50.546;12.292;2023-05-10T08:54:38;12.40;99.90
36458;DHT22;22480;50.546;12.292;2023-05-10T08:57:04;12.40;99.90
36458;DHT22;22480;50.546;12.292;2023-05-10T08:59:31;12.40;99.90
36458;DHT22;22480;50.546;12.292;2023-05-10T09:02:00;12.50;99.90
36458;DHT22;22480;50.546;12.292;2023-05-10T09:04:27;12.80;99.90
36458;DHT22;22480;50.546;12.292;2023-05-10T09:06:53;13.10;99.90
36458;DHT22;22480;50.546;12.292;2023-05-10T09:09:20;13.40;99.90
36458;DHT22;22480;50.546;12.292;2023-05-10T09:11:47;13.70;99.90
36458;DHT22;22480;50.546;12.292;2023-05-10T09:14:13;13.80;99.90
36458;DHT22;22480;50.546;12.292;2023-05-10T09:16:40;14.00;99.90
36458;DHT22;22480;50.546;12.292;2023-05-10T09:19:07;14.20;99.90
36458;DHT22;22480;50.546;12.292;2023-05-10T09:21:36;14.30;99.90
36458;DHT22;22480;50.546;12.292;2023-05-10T09:24:08;14.40;99.90
36458;DHT22;22480;50.546;12.292;2023-05-10T09:26:35;14.40;99.90
36458;DHT22;22480;50.546;12.292;2023-05-10T09:29:02;14.40;99.90
36458;DHT22;22480;50.546;12.292;2023-05-10T09:31:48;14.30;99.90
36458;DHT22;22480;50.546;12.292;2023-05-10T09:34:20;14.20;99.90
36458;DHT22;22480;50.546;12.292;2023-05-10T09:36:56;14.20;99.90
36458;DHT22;22480;50.546;12.292;2023-05-10T09:39:33;14.20;99.90
36458;DHT22;22480;50.546;12.292;2023-05-10T09:42:01;14.20;99.90
36458;DHT22;22480;50.546;12.292;2023-05-10T09:44:29;14.10;99.90
36458;DHT22;22480;50.546;12.292;2023-05-10T09:46:55;14.00;99.90
36458;DHT22;22480;50.546;12.292;2023-05-10T09:49:21;14.00;99.90
36458;DHT22;22480;50.546;12.292;2023-05-10T09:51:57;13.90;99.90
36458;DHT22;22480;50.546;12.292;2023-05-10T09:54:24;13.90;99.90
36458;DHT22;22480;50.546;12.292;2023-05-10T09:56:50;14.00;99.90
36458;DHT22;22480;50.546;12.292;2023-05-10T09:59:16;14.00;99.90
36458;DHT22;22480;50.546;12.292;2023-05-10T10:01:49;13.90;99.90
36458;DHT22;22480;50.546;12.292;2023-05-10T10:04:15;13.80;99.90
36458;DHT22;22480;50.546;12.292;2023-05-10T10:06:41;13.80;99.90
36458;DHT22;22480;50.546;12.292;2023-05-10T10:09:07;13.80;99.90
36458;DHT22;22480;50.546;12.292;2023-05-10T10:11:37;13.90;99.90
36458;DHT22;22480;50.546;12.292;2023-05-10T10:14:03;13.70;99.90
36458;DHT22;22480;50.546;12.292;2023-05-10T10:16:30;13.80;99.90
36458;DHT22;22480;50.546;12.292;2023-05-10T10:18:57;13.80;99.90
36458;DHT22;22480;50.546;12.292;2023-05-10T10:21:23;13.90;99.90
36458;DHT22;22480;50.546;12.292;2023-05-10T10:23:49;13.90;99.90
36458;DHT22;22480;50.546;12.292;2023-05-10T10:26:17;13.90;99.90
36458;DHT22;22480;50.546;12.292;2023-05-10T10:29:10;13.90;99.90
36458;DHT22;22480;50.546;12.292;2023-05-10T10:31:55;13.80;99.90
36458;DHT22;22480;50.546;12.292;2023-05-10T10:34:29;13.90;99.90
36458;DHT22;22480;50.546;12.292;2023-05-10T10:36:56;14.00;99.90
36458;DHT22;22480;50.546;12.292;2023-05-10T10:39:23;14.10;99.90
36458;DHT22;22480;50.546;12.292;2023-05-10T10:41:55;14.00;99.90
36458;DHT22;22480;50.546;12.292;2023-05-10T10:49:26;13.80;99.90
36458;DHT22;22480;50.546;12.292;2023-05-10T10:52:15;13.80;99.90
36458;DHT22;22480;50.546;12.292;2023-05-10T10:55:12;13.70;99.90
36458;DHT22;22480;50.546;12.292;2023-05-10T10:57:45;13.90;99.90
36458;DHT22;22480;50.546;12.292;2023-05-10T11:00:21;14.20;99.90
36458;DHT22;22480;50.546;12.292;2023-05-10T11:02:52;14.40;99.90
36458;DHT22;22480;50.546;12.292;2023-05-10T11:05:45;14.40;99.90
36458;DHT22;22480;50.546;12.292;2023-05-10T11:21:28;14.30;99.90
36458;DHT22;22480;50.546;12.292;2023-05-10T11:23:55;14.40;99.90
36458;DHT22;22480;50.546;12.292;2023-05-10T11:26:29;14.60;99.90
36458;DHT22;22480;50.546;12.292;2023-05-10T11:28:55;14.70;99.90
36458;DHT22;22480;50.546;12.292;2023-05-10T11:31:22;15.00;99.90
36458;DHT22;22480;50.546;12.292;2023-05-10T11:33:51;15.20;99.90
36458;DHT22;22480;50.546;12.292;2023-05-10T11:36:19;15.30;99.90
36458;DHT22;22480;50.546;12.292;2023-05-10T11:38:46;15.40;99.90
36458;DHT22;22480;50.546;12.292;2023-05-10T11:41:12;15.40;99.90
36458;DHT22;22480;50.546;12.292;2023-05-10T11:43:42;15.40;99.90
36458;DHT22;22480;50.546;12.292;2023-05-10T11:46:11;15.40;99.90
36458;DHT22;22480;50.546;12.292;2023-05-10T11:48:41;15.40;99.90
36458;DHT22;22480;50.546;12.292;2023-05-10T11:51:08;15.50;99.90
36458;DHT22;22480;50.546;12.292;2023-05-10T11:53:34;15.60;99.90
36458;DHT22;22480;50.546;12.292;2023-05-10T11:56:06;15.80;99.90
36458;DHT22;22480;50.546;12.292;2023-05-10T11:58:33;16.30;99.90
36458;DHT22;22480;50.546;12.292;2023-05-10T12:00:59;16.60;99.90
36458;DHT22;22480;50.546;12.292;2023-05-10T12:03:26;16.80;99.90
36458;DHT22;22480;50.546;12.292;2023-05-10T12:05:52;16.70;99.90
36458;DHT22;22480;50.546;12.292;2023-05-10T12:08:23;16.90;99.90
36458;DHT22;22480;50.546;12.292;2023-05-10T12:10:49;17.20;99.90
36458;DHT22;22480;50.546;12.292;2023-05-10T12:13:15;17.30;99.90
36458;DHT22;22480;50.546;12.292;2023-05-10T12:15:41;17.40;99.90
36458;DHT22;22480;50.546;12.292;2023-05-10T12:18:12;17.40;99.90
36458;DHT22;22480;50.546;12.292;2023-05-10T12:20:38;17.40;99.90
36458;DHT22;22480;50.546;12.292;2023-05-10T12:23:04;17.60;99.90
36458;DHT22;22480;50.546;12.292;2023-05-10T12:25:33;17.90;99.90
36458;DHT22;22480;50.546;12.292;2023-05-10T12:28:00;18.10;99.90
36458;DHT22;22480;50.546;12.292;2023-05-10T12:30:32;18.10;99.90
36458;DHT22;22480;50.546;12.292;2023-05-10T12:35:32;18.70;99.90
36458;DHT22;22480;50.546;12.292;2023-05-10T12:37:58;18.70;99.90
36458;DHT22;22480;50.546;12.292;2023-05-10T12:40:23;18.60;99.90
36458;DHT22;22480;50.546;12.292;2023-05-10T12:42:49;18.40;99.90
36458;DHT22;22480;50.546;12.292;2023-05-10T12:45:17;18.40;99.90
36458;DHT22;22480;50.546;12.292;2023-05-10T12:47:43;18.30;99.90
36458;DHT22;22480;50.546;12.292;2023-05-10T12:50:09;18.40;99.90
36458;DHT22;22480;50.546;12.292;2023-05-10T12:52:35;18.20;99.90
36458;DHT22;22480;50.546;12.292;2023-05-10T12:55:01;18.20;99.90
36458;DHT22;22480;50.546;12.292;2023-05-10T12:57:27;18.40;99.90
36458;DHT22;22480;50.546;12.292;2023-05-10T12:59:53;18.50;99.90
36458;DHT22;22480;50.546;12.292;2023-05-10T13:02:19;18.80;99.90
36458;DHT22;22480;50.546;12.292;2023-05-10T13:04:46;18.90;99.90
36458;DHT22;22480;50.546;12.292;2023-05-10T13:07:12;19.10;99.90
36458;DHT22;22480;50.546;12.292;2023-05-10T13:09:38;19.00;99.90
36458;DHT22;22480;50.546;12.292;2023-05-10T13:12:04;18.90;99.90
36458;DHT22;22480;50.546;12.292;2023-05-10T13:14:29;19.10;99.90
36458;DHT22;22480;50.546;12.292;2023-05-10T13:16:55;19.00;99.90
36458;DHT22;22480;50.546;12.292;2023-05-10T13:19:21;18.70;99.90
36458;DHT22;22480;50.546;12.292;2023-05-10T13:21:47;18.50;99.90
36458;DHT22;22480;50.546;12.292;2023-05-10T13:24:12;18.10;99.90
36458;DHT22;22480;50.546;12.292;2023-05-10T13:26:42;17.90;99.90
36458;DHT22;22480;50.546;12.292;2023-05-10T13:29:08;17.60;99.90
36458;DHT22;22480;50.546;12.292;2023-05-10T13:31:34;17.20;99.90
36458;DHT22;22480;50.546;12.292;2023-05-10T13:34:01;16.70;99.90
36458;DHT22;22480;50.546;12.292;2023-05-10T13:36:28;16.40;99.90
36458;DHT22;22480;50.546;12.292;2023-05-10T13:38:53;16.00;99.90
36458;DHT22;22480;50.546;12.292;2023-05-10T13:41:19;15.80;99.90
36458;DHT22;22480;50.546;12.292;2023-05-10T13:43:45;15.70;99.90
36458;DHT22;22480;50.546;12.292;2023-05-10T13:46:10;15.60;99.90
36458;DHT22;22480;50.546;12.292;2023-05-10T13:48:36;15.50;99.90
36458;DHT22;22480;50.546;12.292;2023-05-10T13:51:02;15.40;99.90
36458;DHT22;22480;50.546;12.292;2023-05-10T13:53:28;15.40;99.90
36458;DHT22;22480;50.546;12.292;2023-05-10T13:55:54;15.40;99.90
36458;DHT22;22480;50.546;12.292;2023-05-10T13:58:20;15.40;99.90
36458;DHT22;22480;50.546;12.292;2023-05-10T14:00:45;15.40;99.90
36458;DHT22;22480;50.546;12.292;2023-05-10T14:03:11;15.60;99.90
36458;DHT22;22480;50.546;12.292;2023-05-10T14:05:37;16.00;99.90
36458;DHT22;22480;50.546;12.292;2023-05-10T14:08:03;16.50;99.90
36458;DHT22;22480;50.546;12.292;2023-05-10T14:10:29;17.00;99.90
36458;DHT22;22480;50.546;12.292;2023-05-10T14:12:55;17.50;99.90
36458;DHT22;22480;50.546;12.292;2023-05-10T14:15:21;17.80;99.90
36458;DHT22;22480;50.546;12.292;2023-05-10T14:17:47;18.10;99.90
36458;DHT22;22480;50.546;12.292;2023-05-10T14:20:13;18.10;99.90
36458;DHT22;22480;50.546;12.292;2023-05-10T14:22:38;18.60;99.90
36458;DHT22;22480;50.546;12.292;2023-05-10T14:25:05;19.10;99.90
36458;DHT22;22480;50.546;12.292;2023-05-10T14:27:32;19.50;99.90
36458;DHT22;22480;50.546;12.292;2023-05-10T14:29:58;19.50;99.90
36458;DHT22;22480;50.546;12.292;2023-05-10T14:32:23;19.50;99.90
36458;DHT22;22480;50.546;12.292;2023-05-10T14:34:49;19.60;99.90
36458;DHT22;22480;50.546;12.292;2023-05-10T14:37:15;19.40;99.90
36458;DHT22;22480;50.546;12.292;2023-05-10T14:39:41;19.30;99.90
36458;DHT22;22480;50.546;12.292;2023-05-10T14:42:08;19.10;99.90
36458;DHT22;22480;50.546;12.292;2023-05-10T14:44:34;18.80;99.90
36458;DHT22;22480;50.546;12.292;2023-05-10T14:46:59;18.60;99.90
36458;DHT22;22480;50.546;12.292;2023-05-10T14:49:25;18.30;99.90
36458;DHT22;22480;50.546;12.292;2023-05-10T14:51:51;18.20;99.90
36458;DHT22;22480;50.546;12.292;2023-05-10T14:54:17;18.00;99.90
36458;DHT22;22480;50.546;12.292;2023-05-10T14:56:43;17.70;99.90
36458;DHT22;22480;50.546;12.292;2023-05-10T14:59:09;17.50;99.90
36458;DHT22;22480;50.546;12.292;2023-05-10T15:01:35;17.20;99.90
36458;DHT22;22480;50.546;12.292;2023-05-10T15:04:03;16.90;99.90
36458;DHT22;22480;50.546;12.292;2023-05-10T15:06:33;16.50;99.90
36458;DHT22;22480;50.546;12.292;2023-05-10T15:09:00;16.20;99.90
36458;DHT22;22480;50.546;12.292;2023-05-10T15:11:26;16.00;99.90
36458;DHT22;22480;50.546;12.292;2023-05-10T15:13:51;15.90;99.90
36458;DHT22;22480;50.546;12.292;2023-05-10T15:16:17;15.70;99.90
36458;DHT22;22480;50.546;12.292;2023-05-10T15:18:43;15.60;99.90
36458;DHT22;22480;50.546;12.292;2023-05-10T15:21:09;15.50;99.90
36458;DHT22;22480;50.546;12.292;2023-05-10T15:23:35;15.40;99.90
36458;DHT22;22480;50.546;12.292;2023-05-10T15:26:01;15.30;99.90
36458;DHT22;22480;50.546;12.292;2023-05-10T15:28:28;15.30;99.90
36458;DHT22;22480;50.546;12.292;2023-05-10T15:30:54;15.10;99.90
36458;DHT22;22480;50.546;12.292;2023-05-10T15:33:20;15.00;99.90
36458;DHT22;22480;50.546;12.292;2023-05-10T15:35:46;14.90;99.90
36458;DHT22;22480;50.546;12.292;2023-05-10T15:38:12;14.90;99.90
36458;DHT22;22480;50.546;12.292;2023-05-10T15:40:37;14.80;99.90
36458;DHT22;22480;50.546;12.292;2023-05-10T15:43:03;14.70;99.90
36458;DHT22;22480;50.546;12.292;2023-05-10T15:45:30;14.60;99.90
36458;DHT22;22480;50.546;12.292;2023-05-10T15:47:57;14.50;99.90
36458;DHT22;22480;50.546;12.292;2023-05-10T15:50:24;14.40;99.90